Time;durP1;ratioP1;P1;durP2;ratioP2;P2;SDS_P1;SDS_P2;PMS_P1;PMS_P2;Temp;Humidity;BMP_temperature;BMP_pressure;BME280_temperature;BME280_humidity;BME280_pressure;Samples;Min_cycle;Max_cycle;Signal;HPM_P1;HPM_P2
2022/12/05 00:02:05;;;;;;;44.22;35.65;;;;;;;1.12;100.00;101745.31;5144745;28;20100;-65
2022/12/05 00:04:35;;;;;;;40.92;35.08;;;;;;;1.15;100.00;101747.63;5144832;28;20118;-65
2022/12/05 00:07:05;;;;;;;36.38;32.80;;;;;;;1.15;100.00;101742.31;5145258;28;20491;-65
2022/12/05 00:09:36;;;;;;;35.83;32.03;;;;;;;1.14;100.00;101748.63;5144998;28;20498;-65
2022/12/05 00:12:06;;;;;;;43.60;35.17;;;;;;;1.14;100.00;101756.59;5144846;28;20218;-65
2022/12/05 00:14:36;;;;;;;39.30;33.97;;;;;;;1.15;100.00;101746.78;5145092;28;20023;-66
2022/12/05 00:17:07;;;;;;;41.35;32.88;;;;;;;1.16;100.00;101749.25;5127442;28;20027;-67
2022/12/05 00:19:38;;;;;;;37.08;33.22;;;;;;;1.05;100.00;101731.03;5144674;28;20512;-65
2022/12/05 00:22:08;;;;;;;42.08;34.70;;;;;;;0.98;100.00;101724.72;5144584;28;20031;-65
2022/12/05 00:24:39;;;;;;;39.78;35.58;;;;;;;1.14;100.00;101745.97;5144701;28;20534;-66
2022/12/05 00:27:09;;;;;;;40.60;33.28;;;;;;;1.16;100.00;101753.75;5144773;28;20034;-65
2022/12/05 00:29:40;;;;;;;46.83;34.83;;;;;;;1.18;100.00;101751.75;5144658;28;20042;-65
2022/12/05 00:32:10;;;;;;;43.60;33.22;;;;;;;1.17;100.00;101750.91;5144180;28;20444;-66
2022/12/05 00:34:40;;;;;;;38.92;32.92;;;;;;;1.15;100.00;101752.94;5144596;28;20109;-66
2022/12/05 00:37:11;;;;;;;48.47;38.05;;;;;;;1.16;100.00;101759.88;5144745;28;20030;-66
2022/12/05 00:39:41;;;;;;;40.55;32.28;;;;;;;1.17;100.00;101760.72;5144394;28;20037;-66
2022/12/05 00:42:12;;;;;;;40.75;36.22;;;;;;;1.18;100.00;101762.38;5144161;28;20105;-66
2022/12/05 00:44:42;;;;;;;41.42;33.28;;;;;;;1.03;100.00;101738.34;5144331;28;20023;-65
2022/12/05 00:47:12;;;;;;;44.03;34.28;;;;;;;1.17;100.00;101750.06;5144764;28;20038;-66
2022/12/05 00:49:43;;;;;;;38.63;34.72;;;;;;;1.00;100.00;101726.22;5144121;28;20034;-66
2022/12/05 00:52:13;;;;;;;38.70;34.30;;;;;;;1.14;100.00;101751.28;5143777;28;20121;-67
2022/12/05 00:54:43;;;;;;;41.58;36.10;;;;;;;1.16;100.00;101745.75;5144357;28;20026;-67
2022/12/05 00:57:14;;;;;;;58.88;33.92;;;;;;;1.16;100.00;101757.22;5144607;28;20164;-67
2022/12/05 00:59:44;;;;;;;46.03;36.45;;;;;;;1.08;100.00;101745.81;5144283;28;20364;-67
2022/12/05 01:02:15;;;;;;;46.05;38.97;;;;;;;1.17;100.00;101761.53;5143878;28;20069;-67
2022/12/05 01:04:45;;;;;;;40.42;33.25;;;;;;;1.16;100.00;101759.88;5143885;28;20034;-66
2022/12/05 01:07:15;;;;;;;44.55;34.80;;;;;;;1.14;100.00;101759.25;5144085;28;20018;-67
2022/12/05 01:09:46;;;;;;;36.78;32.83;;;;;;;1.16;100.00;101759.88;5144260;28;20092;-67
2022/12/05 01:12:16;;;;;;;52.30;40.03;;;;;;;1.16;100.00;101764.38;5143635;28;20038;-67
2022/12/05 01:14:47;;;;;;;43.88;36.45;;;;;;;1.15;100.00;101757.44;5143886;28;20034;-67
2022/12/05 01:17:17;;;;;;;52.47;39.42;;;;;;;1.13;100.00;101760.25;5151674;23;20499;-69
2022/12/05 01:19:47;;;;;;;42.50;37.85;;;;;;;1.09;100.00;101756.28;5120485;29;20070;-70
2022/12/05 01:22:18;;;;;;;42.50;38.28;;;;;;;1.08;100.00;101745.81;5127025;28;20035;-68
2022/12/05 01:24:48;;;;;;;47.28;42.47;;;;;;;1.13;100.00;101760.25;5132026;28;20038;-67
2022/12/05 01:27:19;;;;;;;42.78;37.78;;;;;;;1.15;100.00;101768.91;5116021;29;20095;-68
2022/12/05 01:29:49;;;;;;;36.95;33.10;;;;;;;1.13;100.00;101762.09;5132975;28;20079;-67
2022/12/05 01:32:20;;;;;;;42.17;37.58;;;;;;;1.18;100.00;101786.31;5129053;28;20039;-69
2022/12/05 01:34:50;;;;;;;41.03;36.67;;;;;;;1.12;100.00;101766.59;5128037;28;20038;-68
2022/12/05 01:37:21;;;;;;;43.47;37.90;;;;;;;1.16;100.00;101783.00;5128349;28;20460;-68
2022/12/05 01:39:51;;;;;;;44.03;36.15;;;;;;;1.17;100.00;101777.50;5129981;28;20058;-68
2022/12/05 01:42:21;;;;;;;52.20;40.17;;;;;;;1.15;100.00;101778.72;5127645;29;20027;-68
2022/12/05 01:45:13;;;;;;;39.80;35.47;;;;;;;1.21;100.00;101781.50;5130099;28;20494;-68
2022/12/05 01:47:44;;;;;;;43.72;37.90;;;;;;;1.21;100.00;101786.81;5130881;28;20035;-68
2022/12/05 01:50:14;;;;;;;49.22;41.78;;;;;;;1.21;100.00;101799.28;5131633;28;20038;-67
2022/12/05 01:52:45;;;;;;;53.88;36.85;;;;;;;1.11;100.00;101772.91;5132397;28;20032;-69
2022/12/05 01:55:16;;;;;;;42.33;36.17;;;;;;;1.21;100.00;101792.13;5124229;28;20027;-68
2022/12/05 01:57:48;;;;;;;47.70;40.30;;;;;;;1.19;100.00;101782.66;5124137;28;20026;-68
2022/12/05 02:00:19;;;;;;;46.85;37.55;;;;;;;1.23;100.00;101790.13;5122850;29;20389;-70
2022/12/05 02:02:58;;;;;;;48.90;38.83;;;;;;;1.24;100.00;101788.31;5123549;28;20130;-67
2022/12/05 02:05:33;;;;;;;56.75;40.45;;;;;;;1.23;100.00;101787.47;5124126;28;20546;-68
2022/12/05 02:08:06;;;;;;;48.33;41.08;;;;;;;1.21;100.00;101786.81;5123758;28;20491;-66
2022/12/05 02:10:47;;;;;;;51.85;39.15;;;;;;;1.22;100.00;101788.47;5123829;28;20082;-67
2022/12/05 02:13:32;;;;;;;60.83;44.15;;;;;;;1.22;100.00;101791.13;5123946;28;20432;-67
2022/12/05 02:16:17;;;;;;;43.00;38.08;;;;;;;1.20;100.00;101797.63;5123924;28;20065;-67
2022/12/05 02:18:53;;;;;;;60.35;37.53;;;;;;;1.21;100.00;101802.78;5124168;28;20026;-68
2022/12/05 02:21:45;;;;;;;45.47;37.50;;;;;;;1.22;100.00;101801.78;5124123;28;20480;-68
2022/12/05 02:24:53;;;;;;;47.83;38.28;;;;;;;1.23;100.00;101790.13;5123716;28;20024;-69
2022/12/05 02:27:42;;;;;;;51.00;41.95;;;;;;;1.25;100.00;101787.31;5124116;28;20058;-70
2022/12/05 02:30:23;;;;;;;44.83;38.40;;;;;;;1.25;100.00;101788.13;5124192;29;20027;-67
2022/12/05 02:33:09;;;;;;;41.67;36.55;;;;;;;1.05;100.00;101754.97;5123389;28;20110;-69
2022/12/05 02:35:54;;;;;;;49.13;39.97;;;;;;;1.26;100.00;101780.97;5125783;28;20345;-68
2022/12/05 02:38:29;;;;;;;50.78;40.08;;;;;;;1.25;100.00;101790.78;5128140;28;20440;-68
2022/12/05 02:40:59;;;;;;;46.88;38.00;;;;;;;1.24;100.00;101781.16;5128342;28;20396;-67
2022/12/05 02:43:55;;;;;;;56.17;43.53;;;;;;;1.24;100.00;101786.47;5127547;28;20038;-68
2022/12/05 02:46:29;;;;;;;52.00;42.35;;;;;;;0.97;100.00;101747.00;5128032;28;20109;-68
2022/12/05 02:49:03;;;;;;;44.45;38.92;;;;;;;1.21;100.00;101778.81;5128066;28;20110;-68
2022/12/05 02:51:45;;;;;;;45.83;40.78;;;;;;;1.13;100.00;101770.91;5128132;28;20164;-68
2022/12/05 02:54:20;;;;;;;43.00;39.00;;;;;;;1.24;100.00;101789.13;5127748;28;20391;-68
2022/12/05 02:56:51;;;;;;;46.58;38.45;;;;;;;1.25;100.00;101785.47;5127762;28;20027;-67
2022/12/05 02:59:22;;;;;;;47.47;40.55;;;;;;;1.26;100.00;101786.31;5127636;28;20495;-67
2022/12/05 03:01:52;;;;;;;40.78;36.47;;;;;;;1.28;100.00;101781.63;5126612;28;20099;-67
2022/12/05 03:04:24;;;;;;;52.55;40.08;;;;;;;1.24;100.00;101778.50;5125829;28;20061;-67
2022/12/05 03:07:02;;;;;;;48.28;42.95;;;;;;;1.27;100.00;101778.16;5127705;28;20407;-68
2022/12/05 03:09:44;;;;;;;48.58;40.83;;;;;;;1.31;100.00;101779.47;5128448;28;20027;-68
2022/12/05 03:12:23;;;;;;;47.85;40.33;;;;;;;1.29;100.00;101777.97;5127292;28;20038;-68
2022/12/05 03:15:03;;;;;;;45.20;40.33;;;;;;;1.32;100.00;101783.78;5127922;28;20372;-67
2022/12/05 03:17:40;;;;;;;45.05;39.15;;;;;;;1.20;100.00;101763.88;5126005;29;20126;-67
2022/12/05 03:20:18;;;;;;;45.03;39.25;;;;;;;1.21;100.00;101772.69;5126588;28;20031;-66
2022/12/05 03:23:10;;;;;;;48.60;42.85;;;;;;;1.27;100.00;101783.47;5126440;28;20039;-67
2022/12/05 03:26:13;;;;;;;47.90;42.75;;;;;;;1.25;100.00;101782.81;5126908;28;20027;-68
2022/12/05 03:29:02;;;;;;;50.25;37.70;;;;;;;1.26;100.00;101787.13;5121105;29;20043;-66
2022/12/05 03:31:40;;;;;;;46.92;40.97;;;;;;;1.25;100.00;101779.31;5126992;29;20106;-65
2022/12/05 03:34:19;;;;;;;41.00;35.60;;;;;;;1.20;100.00;101771.00;5126302;28;20035;-65
2022/12/05 03:36:52;;;;;;;48.75;40.17;;;;;;;1.22;100.00;101787.63;5125357;29;20035;-67
2022/12/05 03:39:28;;;;;;;43.42;38.85;;;;;;;1.23;100.00;101789.31;5126537;28;20079;-65
2022/12/05 03:42:19;;;;;;;50.55;40.15;;;;;;;1.21;100.00;101789.47;5126290;28;20062;-65
2022/12/05 03:44:59;;;;;;;44.05;39.42;;;;;;;1.23;100.00;101782.16;5126068;28;20027;-65
2022/12/05 03:48:00;;;;;;;32.57;29.17;;;;;;;1.24;100.00;101789.13;5126047;28;20019;-65
2022/12/05 03:50:31;;;;;;;48.22;38.67;;;;;;;1.25;100.00;101777.50;5099179;28;20527;-65
2022/12/05 03:53:07;;;;;;;46.08;40.63;;;;;;;1.26;100.00;101787.13;5125776;28;20035;-68
2022/12/05 03:55:41;;;;;;;45.70;40.92;;;;;;;1.29;100.00;101786.78;5126506;28;20027;-66
2022/12/05 03:58:23;;;;;;;49.38;42.95;;;;;;;1.05;100.00;101748.81;5126112;28;20031;-66
2022/12/05 04:00:57;;;;;;;52.72;40.67;;;;;;;1.30;100.00;101788.44;5126332;28;20077;-66
2022/12/05 04:03:44;;;;;;;46.17;37.25;;;;;;;1.08;100.00;101761.78;5126106;28;20118;-66
2022/12/05 04:06:23;;;;;;;47.15;39.70;;;;;;;1.29;100.00;101792.09;5126088;28;20031;-66
2022/12/05 04:09:20;;;;;;;51.30;40.50;;;;;;;1.31;100.00;101795.44;5126459;28;20031;-66
2022/12/05 04:11:55;;;;;;;43.47;38.80;;;;;;;1.32;100.00;101791.75;5117410;29;20171;-66
2022/12/05 04:14:56;;;;;;;46.60;41.70;;;;;;;1.30;100.00;101796.44;5126500;28;20027;-67
2022/12/05 04:17:33;;;;;;;;;;;;;;;1.34;100.00;101794.25;5124396;29;20043;-67
2022/12/05 04:23:09;;;;;;;49.83;38.20;;;;;;;1.34;100.00;101789.75;5125220;28;20042;-68
2022/12/05 04:26:20;;;;;;;48.70;38.35;;;;;;;1.33;100.00;101789.94;5126200;28;20023;-67
2022/12/05 04:29:03;;;;;;;52.45;39.28;;;;;;;1.33;100.00;101797.91;5125554;28;20027;-67
2022/12/05 04:31:41;;;;;;;46.25;41.33;;;;;;;1.35;100.00;101790.59;5125526;28;20519;-67
2022/12/05 04:34:14;;;;;;;40.13;35.97;;;;;;;1.31;100.00;101789.28;5125382;28;20102;-68
2022/12/05 04:36:54;;;;;;;45.00;37.97;;;;;;;1.37;100.00;101793.91;5125401;28;20023;-68
2022/12/05 04:39:32;;;;;;;45.95;40.55;;;;;;;1.25;100.00;101779.31;5125380;28;20154;-68
2022/12/05 04:42:19;;;;;;;42.53;38.45;;;;;;;1.38;100.00;101797.41;5124891;28;20034;-67
2022/12/05 04:44:56;;;;;;;51.20;39.78;;;;;;;1.40;100.00;101798.91;5125232;28;20484;-66
2022/12/05 04:47:31;;;;;;;46.53;40.60;;;;;;;1.40;100.00;101795.41;5125797;28;20106;-68
2022/12/05 04:50:05;;;;;;;46.95;40.13;;;;;;;1.16;100.00;101765.22;5125492;28;20079;-67
2022/12/05 04:52:37;;;;;;;47.75;39.88;;;;;;;1.41;100.00;101803.22;5124403;28;20038;-66
2022/12/05 04:55:12;;;;;;;51.20;42.83;;;;;;;1.40;100.00;101804.22;5125121;28;20036;-67
2022/12/05 04:57:51;;;;;;;54.80;43.08;;;;;;;1.38;100.00;101806.22;5124067;28;20070;-67
2022/12/05 05:00:22;;;;;;;49.72;39.60;;;;;;;1.40;100.00;101804.22;5124939;28;20038;-67
2022/12/05 05:03:03;;;;;;;42.10;37.83;;;;;;;1.43;100.00;101800.38;5124353;28;20035;-67
2022/12/05 05:05:36;;;;;;;50.28;40.28;;;;;;;1.45;100.00;101806.34;5125323;28;20501;-68
2022/12/05 05:08:16;;;;;;;51.38;42.40;;;;;;;1.46;100.00;101805.34;5125083;28;20078;-67
2022/12/05 05:11:00;;;;;;;48.10;37.85;;;;;;;1.46;100.00;101810.66;5124745;28;20015;-67
2022/12/05 05:13:30;;;;;;;48.28;38.80;;;;;;;1.43;100.00;101814.53;5124335;28;20484;-67
2022/12/05 05:16:01;;;;;;;52.08;42.70;;;;;;;1.44;100.00;101821.50;5124111;29;20041;-67
2022/12/05 05:18:32;;;;;;;61.30;39.72;;;;;;;1.01;100.00;101750.97;5124872;28;20031;-67
2022/12/05 05:21:03;;;;;;;46.65;41.47;;;;;;;1.46;100.00;101823.97;5123672;29;20031;-67
2022/12/05 05:23:33;;;;;;;46.63;41.05;;;;;;;1.45;100.00;101814.31;5124022;28;20042;-67
2022/12/05 05:26:03;;;;;;;49.13;39.50;;;;;;;1.49;100.00;101818.28;5124329;28;20051;-67
2022/12/05 05:28:34;;;;;;;51.70;41.78;;;;;;;1.46;100.00;101815.97;5124330;28;20030;-67
2022/12/05 05:31:06;;;;;;;48.00;40.97;;;;;;;1.44;100.00;101818.84;5124332;28;20479;-68
2022/12/05 05:33:37;;;;;;;48.92;40.70;;;;;;;1.48;100.00;101830.78;5124100;28;20027;-67
2022/12/05 05:36:11;;;;;;;42.85;37.70;;;;;;;1.48;100.00;101829.94;5124215;28;20045;-67
2022/12/05 05:38:47;;;;;;;50.30;38.10;;;;;;;1.51;100.00;101826.94;5124188;28;20023;-68
2022/12/05 05:41:21;;;;;;;46.75;42.08;;;;;;;1.52;100.00;101839.25;5124260;28;20500;-68
2022/12/05 05:43:52;;;;;;;49.40;44.10;;;;;;;1.51;100.00;101833.09;5123631;28;20507;-68
2022/12/05 05:46:25;;;;;;;48.72;43.65;;;;;;;1.47;100.00;101830.94;5124037;28;20436;-67
2022/12/05 05:48:56;;;;;;;49.42;42.47;;;;;;;1.50;100.00;101834.09;5124199;28;20027;-67
2022/12/05 05:51:28;;;;;;;52.83;44.45;;;;;;;1.53;100.00;101840.91;5124255;28;20077;-66
2022/12/05 05:53:59;;;;;;;43.33;38.50;;;;;;;1.53;100.00;101843.56;5123701;28;20396;-69
2022/12/05 05:56:29;;;;;;;52.00;44.60;;;;;;;1.53;100.00;101835.59;5120196;28;20069;-67
2022/12/05 05:59:01;;;;;;;46.83;41.80;;;;;;;1.53;100.00;101844.41;5122427;29;20035;-68
2022/12/05 06:01:32;;;;;;;53.42;45.58;;;;;;;1.39;100.00;101818.53;5124128;29;20031;-68
2022/12/05 06:04:02;;;;;;;55.15;42.90;;;;;;;1.55;100.00;101844.22;5106002;29;20408;-66
2022/12/05 06:06:33;;;;;;;52.83;44.90;;;;;;;1.46;100.00;101826.63;5123460;29;20109;-67
2022/12/05 06:09:05;;;;;;;52.08;39.88;;;;;;;1.59;100.00;101856.19;5123118;29;20476;-66
2022/12/05 06:11:36;;;;;;;54.70;43.25;;;;;;;1.56;100.00;101835.25;5122588;29;20035;-68
2022/12/05 06:14:07;;;;;;;50.80;42.63;;;;;;;1.58;100.00;101843.88;5122910;28;20026;-68
2022/12/05 06:16:38;;;;;;;45.20;40.20;;;;;;;1.51;100.00;101837.59;5105922;29;20046;-67
2022/12/05 06:19:08;;;;;;;48.60;40.83;;;;;;;1.58;100.00;101846.56;5123264;29;20019;-67
2022/12/05 06:21:38;;;;;;;51.75;44.67;;;;;;;1.60;100.00;101855.19;5106263;29;20066;-68
2022/12/05 06:24:09;;;;;;;56.47;41.80;;;;;;;1.54;100.00;101847.91;5122667;28;20392;-67
2022/12/05 06:26:39;;;;;;;68.40;46.75;;;;;;;1.60;100.00;101855.19;5123341;29;20159;-67
2022/12/05 06:29:10;;;;;;;53.83;47.95;;;;;;;1.60;100.00;101852.53;5123458;29;20030;-67
2022/12/05 06:31:42;;;;;;;53.08;45.60;;;;;;;1.62;100.00;101856.69;5122068;29;20090;-67
2022/12/05 06:34:13;;;;;;;54.60;47.60;;;;;;;1.61;100.00;101855.03;5123483;28;20381;-68
2022/12/05 06:36:43;;;;;;;60.75;47.95;;;;;;;1.60;100.00;101850.69;5123306;29;20106;-68
2022/12/05 06:39:13;;;;;;;57.38;48.15;;;;;;;1.62;100.00;101856.69;5119529;29;20027;-68
2022/12/05 06:41:44;;;;;;;60.30;44.13;;;;;;;1.65;100.00;101866.16;5123890;29;20506;-66
2022/12/05 06:44:14;;;;;;;54.65;45.10;;;;;;;1.57;100.00;101848.38;5123940;28;20028;-66
2022/12/05 06:46:44;;;;;;;56.40;47.67;;;;;;;1.57;100.00;101851.03;5123862;29;20396;-66
2022/12/05 06:49:15;;;;;;;52.50;47.00;;;;;;;1.60;100.00;101863.19;5123631;29;20472;-66
2022/12/05 06:51:45;;;;;;;62.95;47.13;;;;;;;1.65;100.00;101866.16;5123674;29;20023;-66
2022/12/05 06:54:16;;;;;;;60.67;42.80;;;;;;;1.67;100.00;101864.16;5123677;28;20110;-66
2022/12/05 06:56:46;;;;;;;55.85;43.17;;;;;;;1.68;100.00;101876.47;5123470;29;20498;-65
2022/12/05 06:59:16;;;;;;;61.53;46.63;;;;;;;1.67;100.00;101877.47;5123766;29;20031;-65
2022/12/05 07:01:47;;;;;;;59.67;45.50;;;;;;;1.37;100.00;101827.69;5123370;29;20754;-67
2022/12/05 07:04:24;;;;;;;52.58;44.65;;;;;;;1.66;100.00;101875.81;5123332;28;20026;-65
2022/12/05 07:06:54;;;;;;;52.47;45.78;;;;;;;1.65;100.00;101876.81;5123202;29;20023;-64
2022/12/05 07:12:17;;;;;;;69.38;45.03;;;;;;;1.67;100.00;101880.13;5118587;28;20035;-64
2022/12/05 07:14:47;;;;;;;60.10;43.28;;;;;;;1.68;100.00;101881.78;5122570;28;20506;-65
2022/12/05 07:17:19;;;;;;;54.30;46.83;;;;;;;1.68;100.00;101887.94;5122854;29;20035;-64
2022/12/05 07:19:51;;;;;;;52.35;45.30;;;;;;;1.66;100.00;101881.97;5152715;23;20050;-67
2022/12/05 07:22:22;;;;;;;50.00;44.25;;;;;;;1.62;100.00;101883.31;5163824;28;20057;-67
2022/12/05 07:24:52;;;;;;;51.08;44.38;;;;;;;1.68;100.00;101897.78;5166066;28;20061;-67
2022/12/05 07:27:22;;;;;;;55.50;44.25;;;;;;;1.68;100.00;101897.78;5165879;28;20494;-67
2022/12/05 07:29:53;;;;;;;48.72;41.00;;;;;;;1.60;100.00;101892.47;5166064;28;20108;-68
2022/12/05 07:32:24;;;;;;;46.00;40.45;;;;;;;1.69;100.00;101905.59;5165530;28;20520;-68
2022/12/05 07:34:54;;;;;;;60.50;48.03;;;;;;;1.67;100.00;101906.75;5165891;28;20041;-66
2022/12/05 07:37:25;;;;;;;53.60;47.90;;;;;;;1.69;100.00;101915.41;5165090;28;20156;-66
2022/12/05 07:39:55;;;;;;;50.95;40.33;;;;;;;1.69;100.00;101910.09;5150117;28;20084;-66
2022/12/05 07:42:25;;;;;;;46.65;41.10;;;;;;;1.70;100.00;101911.75;5145100;28;20097;-69
2022/12/05 07:44:56;;;;;;;44.72;39.85;;;;;;;1.71;100.00;101913.41;5145630;28;20323;-67
2022/12/05 07:47:29;;;;;;;46.97;41.67;;;;;;;1.72;100.00;101915.06;5145577;28;20475;-66
2022/12/05 07:50:00;;;;;;;52.63;43.58;;;;;;;1.55;100.00;101881.50;5145239;28;20037;-66
2022/12/05 07:52:30;;;;;;;54.83;48.90;;;;;;;1.76;100.00;101924.34;5144978;28;20019;-66
2022/12/05 07:55:00;;;;;;;48.17;43.00;;;;;;;1.77;100.00;101918.03;5145576;28;20364;-66
2022/12/05 07:57:31;;;;;;;50.22;36.95;;;;;;;1.78;100.00;101922.34;5145289;28;20025;-66
2022/12/05 08:00:03;;;;;;;56.10;41.85;;;;;;;1.79;100.00;101918.69;5128153;28;20035;-66
2022/12/05 08:02:33;;;;;;;45.05;38.03;;;;;;;1.80;100.00;101925.66;5138309;28;20217;-66
2022/12/05 08:05:04;;;;;;;55.95;40.88;;;;;;;1.80;100.00;101922.16;5141652;28;20019;-66
2022/12/05 08:07:34;;;;;;;54.47;40.88;;;;;;;1.83;100.00;101924.50;5145573;28;20023;-67
2022/12/05 08:10:06;;;;;;;47.83;40.92;;;;;;;1.84;100.00;101926.16;5145412;28;20023;-66
2022/12/05 08:12:37;;;;;;;53.55;36.40;;;;;;;1.89;100.00;101935.28;5142570;28;20023;-67
2022/12/05 08:15:08;;;;;;;47.53;42.60;;;;;;;1.93;100.00;101931.28;5142655;28;20029;-70
2022/12/05 08:17:38;;;;;;;44.70;40.25;;;;;;;1.93;100.00;101938.44;5144023;28;20042;-65
2022/12/05 08:20:09;;;;;;;46.05;39.72;;;;;;;1.90;100.00;101944.94;5143193;28;20041;-67
2022/12/05 08:22:40;;;;;;;47.25;42.67;;;;;;;1.95;100.00;101947.94;5143028;28;20030;-68
2022/12/05 08:25:10;;;;;;;51.45;44.42;;;;;;;1.92;100.00;101942.94;5145213;28;20023;-68
2022/12/05 08:27:40;;;;;;;45.50;40.60;;;;;;;2.00;100.00;101955.41;5145127;28;20249;-67
2022/12/05 08:30:11;;;;;;;51.13;41.53;;;;;;;2.01;100.00;101955.25;5145318;28;20106;-67
2022/12/05 08:32:41;;;;;;;46.78;38.47;;;;;;;2.03;100.00;101958.53;5144433;28;20023;-67
2022/12/05 08:35:12;;;;;;;43.75;38.17;;;;;;;2.04;100.00;101960.19;5159158;28;20037;-67
2022/12/05 08:37:42;;;;;;;48.72;40.13;;;;;;;2.08;100.00;101965.19;5165562;28;20375;-67
2022/12/05 08:40:13;;;;;;;46.85;41.90;;;;;;;2.09;100.00;101949.03;5164942;28;20030;-66
2022/12/05 08:42:43;;;;;;;42.25;36.00;;;;;;;1.99;100.00;101935.94;5164888;28;20033;-67
2022/12/05 08:45:13;;;;;;;51.40;43.17;;;;;;;2.19;100.00;101970.97;5165370;28;20496;-68
2022/12/05 08:47:44;;;;;;;42.63;38.05;;;;;;;2.12;100.00;101954.00;5165330;28;20018;-67
2022/12/05 08:50:14;;;;;;;49.00;43.85;;;;;;;2.21;100.00;101973.47;5165038;28;20046;-67
2022/12/05 08:52:44;;;;;;;46.30;41.28;;;;;;;2.24;100.00;101973.13;5164042;28;20529;-68
2022/12/05 08:55:15;;;;;;;46.72;39.13;;;;;;;2.19;100.00;101964.81;5165355;28;20033;-67
2022/12/05 08:57:45;;;;;;;46.15;39.90;;;;;;;2.10;100.00;101958.69;5165238;28;20322;-67
2022/12/05 09:00:16;;;;;;;46.53;38.90;;;;;;;2.23;100.00;101976.78;5165055;28;20030;-65
2022/12/05 09:02:50;;;;;;;41.00;36.58;;;;;;;2.24;100.00;101981.09;5164173;28;20113;-67
2022/12/05 09:05:22;;;;;;;44.35;37.70;;;;;;;2.18;100.00;101969.31;5165081;28;20033;-66
2022/12/05 09:07:52;;;;;;;41.90;37.65;;;;;;;2.25;100.00;101980.94;5165018;28;20469;-67
2022/12/05 09:10:23;;;;;;;42.80;38.63;;;;;;;2.22;100.00;101977.78;5164702;28;20121;-65
2022/12/05 09:12:53;;;;;;;43.67;38.95;;;;;;;2.23;100.00;101979.44;5164084;28;20478;-67
2022/12/05 09:15:24;;;;;;;46.58;37.70;;;;;;;2.23;100.00;101982.94;5164736;28;20058;-65
2022/12/05 09:17:54;;;;;;;39.30;35.45;;;;;;;2.08;100.00;101973.16;5165207;28;20033;-68
2022/12/05 09:20:24;;;;;;;41.78;37.30;;;;;;;2.18;100.00;101979.97;5164478;28;20419;-67
2022/12/05 09:22:55;;;;;;;43.95;35.55;;;;;;;2.19;100.00;101989.63;5163980;28;20054;-66
2022/12/05 09:25:25;;;;;;;39.92;35.95;;;;;;;2.20;100.00;101988.63;5146725;28;20026;-66
2022/12/05 09:27:56;;;;;;;41.08;33.70;;;;;;;2.27;100.00;101986.09;5163959;28;20490;-65
2022/12/05 09:30:26;;;;;;;37.83;33.90;;;;;;;2.32;100.00;101997.03;5163748;28;20038;-67
2022/12/05 09:32:57;;;;;;;38.72;34.75;;;;;;;2.33;100.00;101994.19;5163409;28;20385;-68
2022/12/05 09:35:27;;;;;;;36.35;32.55;;;;;;;2.32;100.00;101997.88;5146271;28;20038;-67
2022/12/05 09:37:57;;;;;;;30.88;27.98;;;;;;;2.31;100.00;102003.41;5163787;28;20018;-68
2022/12/05 09:40:30;;;;;;;34.50;30.42;;;;;;;2.23;100.00;101988.28;5146615;28;20061;-67
2022/12/05 09:43:07;;;;;;;34.35;29.25;;;;;;;2.29;100.00;102003.56;5163859;28;20022;-68
2022/12/05 09:45:48;;;;;;;31.60;28.38;;;;;;;2.25;100.00;102004.09;5163388;28;20431;-68
2022/12/05 09:48:21;;;;;;;32.25;29.25;;;;;;;2.21;100.00;102000.09;5163804;28;20069;-67
2022/12/05 09:50:57;;;;;;;35.67;30.23;;;;;;;2.22;100.00;102005.25;5163217;28;20052;-67
2022/12/05 09:53:38;;;;;;;32.63;28.60;;;;;;;2.18;100.00;101995.94;5163039;28;20022;-66
2022/12/05 09:56:09;;;;;;;35.85;28.77;;;;;;;2.25;100.00;102002.25;5163759;28;20030;-68
2022/12/05 09:58:50;;;;;;;32.85;29.52;;;;;;;2.25;100.00;102002.25;5163502;28;20026;-65
2022/12/05 10:01:45;;;;;;;36.65;32.88;;;;;;;2.27;100.00;102002.91;5163274;28;20034;-67
2022/12/05 10:04:18;;;;;;;34.20;30.05;;;;;;;2.30;100.00;101999.06;5163143;28;20502;-67
2022/12/05 10:07:05;;;;;;;31.50;28.70;;;;;;;2.26;100.00;101995.09;5145958;28;20410;-68
2022/12/05 10:09:55;;;;;;;35.55;30.92;;;;;;;2.33;100.00;102004.03;5163025;28;20065;-67
2022/12/05 10:12:44;;;;;;;29.35;26.60;;;;;;;2.34;100.00;102001.19;5163063;28;20038;-71
2022/12/05 10:15:38;;;;;;;30.50;27.00;;;;;;;2.40;100.00;102004.16;5145910;28;20529;-68
2022/12/05 10:18:15;;;;;;;32.08;27.38;;;;;;;2.41;100.00;101996.00;5161602;28;20033;-66
2022/12/05 10:20:50;;;;;;;27.38;24.60;;;;;;;2.43;100.00;102004.66;5161778;28;20073;-67
2022/12/05 10:23:26;;;;;;;33.38;29.75;;;;;;;2.40;100.00;101994.34;5163354;28;20022;-67
2022/12/05 10:26:01;;;;;;;29.58;25.40;;;;;;;2.44;100.00;101997.50;5163715;28;20037;-68
2022/12/05 10:28:38;;;;;;;33.70;30.38;;;;;;;2.47;100.00;102000.66;5146354;28;20026;-67
2022/12/05 10:31:15;;;;;;;35.53;27.23;;;;;;;2.46;100.00;102001.66;5163289;28;20049;-66
2022/12/05 10:33:56;;;;;;;27.95;25.55;;;;;;;2.47;100.00;102011.31;5162697;28;20041;-67
2022/12/05 10:36:26;;;;;;;30.95;28.30;;;;;;;2.48;100.00;102006.81;5162958;28;20057;-67
2022/12/05 10:38:57;;;;;;;33.65;28.30;;;;;;;2.45;100.00;101991.16;5163235;28;20030;-69
2022/12/05 10:41:28;;;;;;;26.48;24.05;;;;;;;2.62;100.00;102004.22;5163114;28;20398;-67
2022/12/05 10:43:58;;;;;;;28.42;25.75;;;;;;;2.65;100.00;102005.69;5162682;28;20105;-67
2022/12/05 10:46:30;;;;;;;26.98;24.10;;;;;;;2.66;100.00;101997.53;5162788;28;20105;-68
2022/12/05 10:49:00;;;;;;;26.98;24.60;;;;;;;2.69;100.00;101997.19;5163247;28;20022;-68
2022/12/05 10:51:32;;;;;;;28.77;26.25;;;;;;;2.85;100.00;102006.09;5163206;28;20034;-68
2022/12/05 10:54:15;;;;;;;26.95;24.15;;;;;;;2.87;100.00;102006.75;5162489;28;20045;-67
2022/12/05 10:56:50;;;;;;;26.92;24.30;;;;;;;2.87;100.00;102006.75;5164781;28;20517;-69
2022/12/05 10:59:42;;;;;;;29.63;26.92;;;;;;;2.76;100.00;101977.81;5166677;28;20506;-68
2022/12/05 11:02:22;;;;;;;27.42;24.58;;;;;;;2.88;100.00;101992.41;5149182;28;20030;-66
2022/12/05 11:04:53;;;;;;;30.20;27.08;;;;;;;2.91;100.00;101997.34;5166748;28;20030;-67
2022/12/05 11:07:31;;;;;;;24.58;22.00;;;;;;;2.95;100.00;101996.81;5167188;28;20113;-66
2022/12/05 11:10:19;;;;;;;27.48;24.83;;;;;;;2.98;100.00;102000.97;5166804;28;20113;-66
2022/12/05 11:12:50;;;;;;;26.90;24.27;;;;;;;2.91;100.00;102000.84;5166096;28;20030;-66
2022/12/05 11:15:24;;;;;;;24.23;22.13;;;;;;;2.75;100.00;101981.47;5166494;28;20026;-67
2022/12/05 11:17:59;;;;;;;27.88;25.02;;;;;;;2.79;100.00;101994.28;5168042;28;20459;-68
2022/12/05 11:20:29;;;;;;;28.15;25.17;;;;;;;2.78;100.00;101991.78;5148890;28;20057;-67
2022/12/05 11:23:16;;;;;;;24.65;22.40;;;;;;;2.87;100.00;101988.91;5165867;28;20498;-67
2022/12/05 11:25:46;;;;;;;27.08;24.55;;;;;;;2.94;100.00;101987.16;5166411;28;20474;-67
2022/12/05 11:28:17;;;;;;;24.42;21.88;;;;;;;3.06;100.00;101984.91;5148790;28;20028;-67
2022/12/05 11:31:21;;;;;;;25.80;23.33;;;;;;;3.09;100.00;101989.06;5166319;28;20513;-69
2022/12/05 11:34:09;;;;;;;22.98;21.08;;;;;;;3.16;100.00;101972.16;5165780;28;20049;-68
2022/12/05 11:36:45;;;;;;;22.67;20.88;;;;;;;3.21;100.00;101975.09;5148684;28;20459;-67
2022/12/05 11:39:15;;;;;;;24.27;22.00;;;;;;;3.26;100.00;101975.41;5166196;28;20096;-67
2022/12/05 11:41:58;;;;;;;22.13;20.30;;;;;;;3.12;100.00;101980.72;5166255;28;20022;-68
2022/12/05 11:44:47;;;;;;;24.38;21.85;;;;;;;3.08;100.00;101979.41;5166036;28;20030;-65
2022/12/05 11:47:26;;;;;;;23.85;21.65;;;;;;;3.00;100.00;101983.78;5166179;28;20030;-67
2022/12/05 11:50:35;;;;;;;26.30;23.73;;;;;;;2.97;100.00;101984.13;5166202;28;20049;-65